Terminal Aerodrome Forecast
Issued by NWS Wilmington, OH

Current Version | Previous Version | Text Only | Print | Product List | Glossary Off
Versions: 1 2 3 4 5 6 7 8 9 10 11 12 13 14 15 16 17 18 19 20

000
FTUS41 KILN 261751
TAFCMH
TAF
KCMH 261751Z 2618/2718 16004KT P6SM FEW250
     FM270900 VRB02KT P6SM SCT050 BKN200
     FM271500 19004KT P6SM SHRA OVC050
     FM271700 29006KT P6SM SHRA VCTS OVC040CB=

USA.gov is the U.S. government's official web portal to all federal, state and local government web resources and services.